createdAt,value
2023-02-16T00:05:27.022Z,65.45
2023-02-16T00:11:35.350Z,65.46
2023-02-16T00:18:09.492Z,65.40
2023-02-16T00:24:56.021Z,65.02
2023-02-16T00:30:56.367Z,64.92
2023-02-16T00:37:29.702Z,65.04
2023-02-16T00:43:18.839Z,65.28
2023-02-16T00:49:25.794Z,65.58
2023-02-16T00:55:24.725Z,65.59
2023-02-16T01:01:28.010Z,65.42
2023-02-16T01:08:21.821Z,66.09
2023-02-16T01:14:00.820Z,66.11
2023-02-16T01:19:57.827Z,66.29
2023-02-16T01:25:43.474Z,65.96
2023-02-16T01:31:46.709Z,65.97
2023-02-16T01:37:48.119Z,66.01
2023-02-16T01:43:51.066Z,65.71
2023-02-16T01:50:24.886Z,65.92
2023-02-16T02:02:02.334Z,66.13
2023-02-16T02:07:05.746Z,65.71
2023-02-16T02:12:21.203Z,66.01
2023-02-16T02:17:25.657Z,65.65
2023-02-16T02:23:04.394Z,65.88
2023-02-16T02:28:20.847Z,66.13
2023-02-16T02:33:54.774Z,66.15
2023-02-16T02:39:26.253Z,66.25
2023-02-16T02:44:31.873Z,66.27
2023-02-16T02:49:36.093Z,65.85
2023-02-16T02:55:00.080Z,66.01
2023-02-16T03:00:28.469Z,65.88
2023-02-16T03:05:34.758Z,65.84
2023-02-16T03:10:56.958Z,65.68
2023-02-16T03:16:06.378Z,65.98
2023-02-16T03:21:32.492Z,65.72
2023-02-16T03:26:56.488Z,65.91
2023-02-16T03:32:00.211Z,65.58
2023-02-16T03:37:05.791Z,65.84
2023-02-16T03:42:09.137Z,66.59
2023-02-16T03:47:12.664Z,65.82
2023-02-16T03:52:16.011Z,65.87
2023-02-16T03:57:19.274Z,65.90
2023-02-16T04:02:23.381Z,65.53
2023-02-16T04:07:26.982Z,65.57
2023-02-16T04:12:39.392Z,65.31
2023-02-16T04:17:45.198Z,65.56
2023-02-16T04:22:49.225Z,66.32
2023-02-16T04:27:53.891Z,65.47
2023-02-16T04:32:59.033Z,65.28
2023-02-16T04:38:02.732Z,65.08
2023-02-16T04:43:06.204Z,65.17
2023-02-16T04:48:09.530Z,65.36
2023-02-16T04:53:12.872Z,65.74
2023-02-16T04:58:17.278Z,65.69
2023-02-16T05:03:21.022Z,65.68
2023-02-16T05:08:24.542Z,65.76
2023-02-16T05:13:46.399Z,66.04
2023-02-16T05:18:49.863Z,66.02
2023-02-16T05:23:53.397Z,65.94
2023-02-16T05:28:57.289Z,66.03
2023-02-16T05:34:00.600Z,66.08
2023-02-16T05:39:04.294Z,65.96
2023-02-16T05:44:09.036Z,65.99
2023-02-16T05:49:12.664Z,65.98
2023-02-16T05:54:19.069Z,65.77
2023-02-16T05:59:22.866Z,65.82
2023-02-16T06:04:26.390Z,65.65
2023-02-16T06:09:31.663Z,65.79
2023-02-16T06:14:34.909Z,66.05
2023-02-16T06:19:38.680Z,66.01
2023-02-16T06:24:42.195Z,66.19
2023-02-16T06:29:45.640Z,66.28
2023-02-16T06:34:49.022Z,66.30
2023-02-16T06:39:52.377Z,66.27
2023-02-16T06:44:55.961Z,66.21
2023-02-16T06:49:59.421Z,65.88
2023-02-16T06:55:03.831Z,65.73
2023-02-16T07:00:08.111Z,65.59
2023-02-16T07:05:12.020Z,65.63
2023-02-16T07:10:15.359Z,65.53
2023-02-16T07:15:19.153Z,65.68
2023-02-16T07:20:22.694Z,65.63
2023-02-16T07:25:26.668Z,65.26
2023-02-16T07:30:30.199Z,65.34
2023-02-16T07:35:37.330Z,65.24
2023-02-16T07:40:41.809Z,65.56
2023-02-16T07:45:45.022Z,65.37
2023-02-16T07:50:48.394Z,64.98
2023-02-16T07:55:52.078Z,64.52
2023-02-16T08:01:08.094Z,64.38
2023-02-16T08:06:13.255Z,64.06
2023-02-16T08:11:22.712Z,63.80
2023-02-16T08:16:28.684Z,63.57
2023-02-16T08:21:34.260Z,63.59
2023-02-16T08:26:40.557Z,63.65
2023-02-16T08:31:46.646Z,63.65
2023-02-16T08:36:56.928Z,63.65
2023-02-16T08:42:02.115Z,63.86
2023-02-16T08:47:05.551Z,63.55
2023-02-16T08:52:10.356Z,62.91
2023-02-16T08:57:13.642Z,62.83
2023-02-16T09:02:18.372Z,62.54
2023-02-16T09:07:22.521Z,62.34
2023-02-16T09:12:26.407Z,62.34
2023-02-16T09:17:30.099Z,62.72
2023-02-16T09:22:33.625Z,61.89
2023-02-16T09:27:37.545Z,60.96
2023-02-16T09:32:41.498Z,61.05
2023-02-16T09:37:45.430Z,60.36
2023-02-16T09:43:05.244Z,60.41
2023-02-16T09:48:24.674Z,59.44
2023-02-16T09:53:41.102Z,58.64
2023-02-16T09:58:53.796Z,58.68
2023-02-16T10:04:24.773Z,58.19
2023-02-16T10:09:30.459Z,58.57
2023-02-16T10:14:47.369Z,58.11
2023-02-16T10:19:56.511Z,57.46
2023-02-16T10:25:23.541Z,57.03
2023-02-16T10:30:32.029Z,56.72
2023-02-16T10:35:47.662Z,56.32
2023-02-16T10:41:30.022Z,55.86
2023-02-16T10:46:41.039Z,55.28
2023-02-16T10:51:49.244Z,54.40
2023-02-16T10:57:04.227Z,54.46
2023-02-16T11:02:25.639Z,54.01
2023-02-16T11:07:31.590Z,54.25
2023-02-16T11:12:42.597Z,53.96
2023-02-16T11:18:00.272Z,52.67
2023-02-16T11:23:26.135Z,51.03
2023-02-16T11:28:38.211Z,49.53
2023-02-16T11:33:43.640Z,49.70
2023-02-16T11:38:59.606Z,49.82
2023-02-16T11:44:04.260Z,49.03
2023-02-16T11:49:41.654Z,49.01
2023-02-16T11:54:56.273Z,48.37
2023-02-16T12:00:02.363Z,47.58
2023-02-16T12:05:18.195Z,47.99
2023-02-16T12:10:21.668Z,48.01
2023-02-16T12:15:30.552Z,47.71
2023-02-16T12:21:12.842Z,47.37
2023-02-16T12:26:19.174Z,47.05
2023-02-16T12:31:34.904Z,46.81
2023-02-16T12:36:49.035Z,46.80
2023-02-16T12:42:28.211Z,46.64
2023-02-16T12:47:45.533Z,46.14
2023-02-16T12:52:58.102Z,46.31
2023-02-16T12:58:30.968Z,46.82
2023-02-16T13:03:51.615Z,46.19
2023-02-16T13:09:07.403Z,46.21
2023-02-16T13:14:17.362Z,45.94
2023-02-16T13:19:21.156Z,45.95
2023-02-16T13:24:38.890Z,45.53
2023-02-16T13:30:01.681Z,45.43
2023-02-16T13:35:36.541Z,44.62
2023-02-16T13:41:18.975Z,44.78
2023-02-16T13:46:32.666Z,44.28
2023-02-16T13:51:47.509Z,44.10
2023-02-16T13:56:51.956Z,44.44
2023-02-16T14:01:57.553Z,44.55
2023-02-16T14:07:03.794Z,43.79
2023-02-16T14:12:12.000Z,44.14
2023-02-16T14:17:22.038Z,44.10
2023-02-16T14:22:33.558Z,44.53
2023-02-16T14:27:43.908Z,44.85
2023-02-16T14:32:51.482Z,44.91
2023-02-16T14:38:06.036Z,45.00
2023-02-16T14:43:34.632Z,45.46
2023-02-16T14:49:19.512Z,45.75
2023-02-16T14:54:57.813Z,45.77
2023-02-16T15:00:29.249Z,45.85
2023-02-16T15:05:38.089Z,45.92
2023-02-16T15:10:47.845Z,45.97
2023-02-16T15:15:56.427Z,46.38
2023-02-16T15:21:01.041Z,46.40
2023-02-16T15:26:15.452Z,46.34
2023-02-16T15:31:24.150Z,46.95
2023-02-16T16:46:30.242Z,50.48
2023-02-16T16:52:42.698Z,50.98
2023-02-16T16:58:08.693Z,50.91
2023-02-16T17:04:18.950Z,51.49
2023-02-16T17:10:06.643Z,52.09
2023-02-16T17:15:27.776Z,52.07
2023-02-16T17:27:12.911Z,52.17
2023-02-16T17:32:49.684Z,52.46
2023-02-16T17:37:56.022Z,52.30
2023-02-16T17:43:22.302Z,52.07
2023-02-16T17:48:56.650Z,51.99
2023-02-16T17:54:20.242Z,51.90
2023-02-16T17:59:34.260Z,51.78
2023-02-16T18:04:50.367Z,51.49
2023-02-16T18:10:19.573Z,51.73
2023-02-16T18:16:22.529Z,51.71
2023-02-16T18:21:58.470Z,51.67
2023-02-16T18:27:45.385Z,51.79
2023-02-16T18:33:34.232Z,51.89
2023-02-16T18:39:48.742Z,52.06
2023-02-16T18:45:22.749Z,52.32
2023-02-16T18:51:02.295Z,52.52
2023-02-16T18:56:57.607Z,52.68
2023-02-16T19:03:22.242Z,53.08
2023-02-16T19:09:26.379Z,54.43
2023-02-16T19:14:47.607Z,54.34
2023-02-16T19:20:12.319Z,54.91
2023-02-16T19:25:39.498Z,54.37
2023-02-16T19:31:59.553Z,54.46
2023-02-16T19:38:16.404Z,54.33
2023-02-16T19:44:02.044Z,54.68
2023-02-16T19:50:22.116Z,54.98
2023-02-16T19:56:18.665Z,55.67
2023-02-16T20:02:18.522Z,55.00
2023-02-16T20:08:23.814Z,55.04
2023-02-16T20:14:38.011Z,55.29
2023-02-16T20:20:22.091Z,55.20
2023-02-16T20:25:56.950Z,55.56
2023-02-16T20:32:06.325Z,55.50
2023-02-16T20:37:41.753Z,55.61
2023-02-16T20:43:27.771Z,55.90
2023-02-16T20:48:59.384Z,56.04
2023-02-16T20:54:52.150Z,56.23
2023-02-16T21:00:20.043Z,56.32
2023-02-16T21:06:06.183Z,56.25
2023-02-16T21:11:43.243Z,56.48
2023-02-16T21:16:57.436Z,56.77
2023-02-16T21:22:47.522Z,57.19
2023-02-16T21:28:36.858Z,57.84
2023-02-16T21:34:08.981Z,57.68
2023-02-16T21:40:15.877Z,57.63
2023-02-16T21:46:20.120Z,58.21
2023-02-16T21:52:15.390Z,57.86
2023-02-16T21:58:25.608Z,57.72
2023-02-16T22:04:33.590Z,57.71
2023-02-16T22:10:39.571Z,57.76
2023-02-16T22:16:35.155Z,57.57
2023-02-16T22:22:51.013Z,57.55
2023-02-16T22:29:08.879Z,57.82
2023-02-16T22:35:52.731Z,57.48
2023-02-16T22:41:23.356Z,57.76
2023-02-16T22:47:00.091Z,57.80
2023-02-16T22:52:53.821Z,57.94
2023-02-16T22:59:01.086Z,58.00
2023-02-16T23:05:08.408Z,58.71
2023-02-16T23:11:25.971Z,58.70
2023-02-16T23:17:33.633Z,58.63
2023-02-16T23:23:38.851Z,58.95
2023-02-16T23:29:10.951Z,58.51
2023-02-16T23:35:12.343Z,58.60
2023-02-16T23:40:47.231Z,58.74
2023-02-16T23:46:39.012Z,59.18
2023-02-16T23:58:46.461Z,59.11
